sensor_id;sensor_type;location;lat;lon;timestamp;pressure;altitude;pressure_sealevel;temperature;humidity
80180;BME280;69505;52.134;5.438;2023-07-16T00:01:53;100942.56;;;16.62;65.88
80180;BME280;69505;52.134;5.438;2023-07-16T00:04:20;100947.16;;;16.70;65.68
80180;BME280;69505;52.134;5.438;2023-07-16T00:06:46;100951.44;;;16.63;66.36
80180;BME280;69505;52.134;5.438;2023-07-16T00:09:13;100953.59;;;16.59;66.20
80180;BME280;69505;52.134;5.438;2023-07-16T00:11:40;100957.44;;;16.57;66.07
80180;BME280;69505;52.134;5.438;2023-07-16T00:14:06;100948.03;;;16.53;66.16
80180;BME280;69505;52.134;5.438;2023-07-16T00:16:33;100950.84;;;16.51;66.18
80180;BME280;69505;52.134;5.438;2023-07-16T00:18:59;100952.44;;;16.44;66.22
80180;BME280;69505;52.134;5.438;2023-07-16T00:21:26;100945.41;;;16.43;66.17
80180;BME280;69505;52.134;5.438;2023-07-16T00:23:53;100946.47;;;16.50;65.55
80180;BME280;69505;52.134;5.438;2023-07-16T00:26:19;100947.25;;;16.42;65.88
80180;BME280;69505;52.134;5.438;2023-07-16T00:28:46;100944.41;;;16.44;65.54
80180;BME280;69505;52.134;5.438;2023-07-16T00:31:13;100949.75;;;16.44;65.21
80180;BME280;69505;52.134;5.438;2023-07-16T00:33:39;100950.78;;;16.43;66.29
80180;BME280;69505;52.134;5.438;2023-07-16T00:36:06;100958.44;;;16.38;65.70
80180;BME280;69505;52.134;5.438;2023-07-16T00:38:32;100959.50;;;16.45;65.75
80180;BME280;69505;52.134;5.438;2023-07-16T00:40:59;100952.44;;;16.44;65.86
80180;BME280;69505;52.134;5.438;2023-07-16T00:43:26;100962.94;;;16.37;65.85
80180;BME280;69505;52.134;5.438;2023-07-16T00:45:53;100960.72;;;16.33;66.00
80180;BME280;69505;52.134;5.438;2023-07-16T00:48:19;100963.56;;;16.31;65.99
80180;BME280;69505;52.134;5.438;2023-07-16T00:50:46;100973.44;;;16.31;66.63
80180;BME280;69505;52.134;5.438;2023-07-16T00:53:13;100956.66;;;16.29;66.60
80180;BME280;69505;52.134;5.438;2023-07-16T00:55:40;100972.06;;;16.27;66.59
80180;BME280;69505;52.134;5.438;2023-07-16T00:58:07;100971.38;;;16.24;66.79
80180;BME280;69505;52.134;5.438;2023-07-16T01:00:38;100970.69;;;16.22;66.52
80180;BME280;69505;52.134;5.438;2023-07-16T01:03:12;100977.97;;;16.30;66.54
80180;BME280;69505;52.134;5.438;2023-07-16T01:06:22;100972.16;;;16.35;66.47
80180;BME280;69505;52.134;5.438;2023-07-16T01:08:59;100973.91;;;16.26;66.82
80180;BME280;69505;52.134;5.438;2023-07-16T01:11:26;100968.47;;;16.18;67.47
80180;BME280;69505;52.134;5.438;2023-07-16T01:13:54;100967.22;;;16.12;67.68
80180;BME280;69505;52.134;5.438;2023-07-16T01:16:24;100966.25;;;16.13;67.61
80180;BME280;69505;52.134;5.438;2023-07-16T01:18:51;100973.44;;;16.13;67.78
80180;BME280;69505;52.134;5.438;2023-07-16T01:21:19;100962.19;;;16.09;67.94
80180;BME280;69505;52.134;5.438;2023-07-16T01:27:41;100958.91;;;16.15;67.56
80180;BME280;69505;52.134;5.438;2023-07-16T01:30:14;100955.97;;;16.09;67.84
80180;BME280;69505;52.134;5.438;2023-07-16T01:32:42;100960.03;;;16.13;67.43
80180;BME280;69505;52.134;5.438;2023-07-16T01:35:10;100959.19;;;16.12;67.52
80180;BME280;69505;52.134;5.438;2023-07-16T01:37:36;100959.50;;;16.09;67.29
80180;BME280;69505;52.134;5.438;2023-07-16T01:40:05;100952.44;;;16.08;67.45
80180;BME280;69505;52.134;5.438;2023-07-16T01:42:33;100959.88;;;16.14;67.81
80180;BME280;69505;52.134;5.438;2023-07-16T01:45:00;100963.78;;;16.20;67.19
80180;BME280;69505;52.134;5.438;2023-07-16T01:47:48;100964.63;;;16.20;67.20
80180;BME280;69505;52.134;5.438;2023-07-16T01:50:18;100957.75;;;16.18;67.13
80180;BME280;69505;52.134;5.438;2023-07-16T01:52:45;100962.25;;;16.17;67.67
80180;BME280;69505;52.134;5.438;2023-07-16T01:55:11;100964.25;;;16.15;67.90
80180;BME280;69505;52.134;5.438;2023-07-16T01:57:38;100965.09;;;16.16;67.81
80180;BME280;69505;52.134;5.438;2023-07-16T02:00:05;100967.63;;;16.17;68.12
80180;BME280;69505;52.134;5.438;2023-07-16T02:02:32;100963.41;;;16.15;68.28
80180;BME280;69505;52.134;5.438;2023-07-16T02:04:58;100964.53;;;16.12;68.33
80180;BME280;69505;52.134;5.438;2023-07-16T02:07:25;100969.53;;;16.07;68.76
80180;BME280;69505;52.134;5.438;2023-07-16T02:09:51;100961.47;;;16.07;68.68
80180;BME280;69505;52.134;5.438;2023-07-16T02:12:18;100969.13;;;16.02;69.06
80180;BME280;69505;52.134;5.438;2023-07-16T02:14:44;100968.97;;;16.03;69.16
80180;BME280;69505;52.134;5.438;2023-07-16T02:17:11;100959.69;;;15.98;69.13
80180;BME280;69505;52.134;5.438;2023-07-16T02:19:38;100962.78;;;16.03;69.40
80180;BME280;69505;52.134;5.438;2023-07-16T02:22:04;100962.09;;;16.01;69.19
80180;BME280;69505;52.134;5.438;2023-07-16T02:24:31;100959.03;;;15.96;69.75
80180;BME280;69505;52.134;5.438;2023-07-16T02:26:58;100962.38;;;15.98;69.76
80180;BME280;69505;52.134;5.438;2023-07-16T02:29:24;100974.41;;;15.94;70.60
80180;BME280;69505;52.134;5.438;2023-07-16T02:31:51;100970.16;;;15.91;70.69
80180;BME280;69505;52.134;5.438;2023-07-16T02:34:18;100970.47;;;15.88;70.49
80180;BME280;69505;52.134;5.438;2023-07-16T02:36:44;100968.63;;;15.89;70.33
80180;BME280;69505;52.134;5.438;2023-07-16T02:39:11;100970.47;;;15.88;70.46
80180;BME280;69505;52.134;5.438;2023-07-16T02:41:38;100968.63;;;15.89;70.50
80180;BME280;69505;52.134;5.438;2023-07-16T02:44:05;100970.16;;;15.91;70.54
80180;BME280;69505;52.134;5.438;2023-07-16T02:46:32;100968.19;;;15.93;70.56
80180;BME280;69505;52.134;5.438;2023-07-16T02:48:59;100965.75;;;16.00;70.55
80180;BME280;69505;52.134;5.438;2023-07-16T02:51:26;100963.16;;;16.08;69.92
80180;BME280;69505;52.134;5.438;2023-07-16T02:53:52;100965.53;;;16.11;70.31
80180;BME280;69505;52.134;5.438;2023-07-16T02:56:19;100977.94;;;16.12;70.27
80180;BME280;69505;52.134;5.438;2023-07-16T02:58:46;100978.63;;;16.14;70.30
80180;BME280;69505;52.134;5.438;2023-07-16T03:01:12;100970.81;;;16.03;70.41
80180;BME280;69505;52.134;5.438;2023-07-16T03:03:39;100979.44;;;15.97;70.86
80180;BME280;69505;52.134;5.438;2023-07-16T03:06:06;100979.91;;;15.92;70.93
80180;BME280;69505;52.134;5.438;2023-07-16T03:08:34;100981.06;;;15.90;71.10
80180;BME280;69505;52.134;5.438;2023-07-16T03:11:01;100983.88;;;15.88;70.99
80180;BME280;69505;52.134;5.438;2023-07-16T03:13:27;100988.81;;;15.83;71.49
80180;BME280;69505;52.134;5.438;2023-07-16T03:15:54;100982.25;;;15.77;71.35
80180;BME280;69505;52.134;5.438;2023-07-16T03:18:20;100977.44;;;15.71;72.95
80180;BME280;69505;52.134;5.438;2023-07-16T03:20:47;100978.31;;;15.62;73.11
80180;BME280;69505;52.134;5.438;2023-07-16T03:23:13;100983.66;;;15.62;73.41
80180;BME280;69505;52.134;5.438;2023-07-16T03:25:40;100991.88;;;15.60;73.35
80180;BME280;69505;52.134;5.438;2023-07-16T03:28:07;100982.00;;;15.61;73.96
80180;BME280;69505;52.134;5.438;2023-07-16T03:30:33;100984.25;;;15.56;73.35
80180;BME280;69505;52.134;5.438;2023-07-16T03:33:00;100985.13;;;15.56;73.74
80180;BME280;69505;52.134;5.438;2023-07-16T03:35:27;100989.34;;;15.59;72.58
80180;BME280;69505;52.134;5.438;2023-07-16T03:37:53;100990.16;;;15.59;73.18
80180;BME280;69505;52.134;5.438;2023-07-16T03:40:24;100991.31;;;15.57;72.55
80180;BME280;69505;52.134;5.438;2023-07-16T03:42:51;100990.63;;;15.55;73.25
80180;BME280;69505;52.134;5.438;2023-07-16T03:45:18;100998.78;;;15.53;73.47
80180;BME280;69505;52.134;5.438;2023-07-16T03:47:45;100996.09;;;15.53;72.89
80180;BME280;69505;52.134;5.438;2023-07-16T03:50:12;101006.28;;;15.50;73.47
80180;BME280;69505;52.134;5.438;2023-07-16T03:52:38;101011.34;;;15.53;73.12
80180;BME280;69505;52.134;5.438;2023-07-16T03:55:05;101012.59;;;15.58;73.01
80180;BME280;69505;52.134;5.438;2023-07-16T03:57:33;101013.56;;;15.57;72.98
80180;BME280;69505;52.134;5.438;2023-07-16T03:59:59;101021.91;;;15.54;73.78
80180;BME280;69505;52.134;5.438;2023-07-16T04:02:26;101012.63;;;15.49;73.56
80180;BME280;69505;52.134;5.438;2023-07-16T04:04:52;101022.19;;;15.51;73.10
80180;BME280;69505;52.134;5.438;2023-07-16T04:07:19;101023.72;;;15.54;73.06
80180;BME280;69505;52.134;5.438;2023-07-16T04:09:46;101031.34;;;15.58;72.39
80180;BME280;69505;52.134;5.438;2023-07-16T04:12:13;101029.34;;;15.60;72.64
80180;BME280;69505;52.134;5.438;2023-07-16T04:14:39;101028.66;;;15.58;72.48
80180;BME280;69505;52.134;5.438;2023-07-16T04:17:06;101035.41;;;15.62;72.41
80180;BME280;69505;52.134;5.438;2023-07-16T04:19:33;101028.31;;;15.71;71.72
80180;BME280;69505;52.134;5.438;2023-07-16T04:22:00;101026.63;;;15.70;71.52
80180;BME280;69505;52.134;5.438;2023-07-16T04:24:27;101030.72;;;15.74;71.74
80180;BME280;69505;52.134;5.438;2023-07-16T04:26:54;101035.66;;;15.69;72.18
80180;BME280;69505;52.134;5.438;2023-07-16T04:29:21;101040.19;;;15.69;71.72
80180;BME280;69505;52.134;5.438;2023-07-16T04:31:47;101045.38;;;15.70;72.28
80180;BME280;69505;52.134;5.438;2023-07-16T04:34:14;101047.34;;;15.68;72.38
80180;BME280;69505;52.134;5.438;2023-07-16T04:36:42;101051.47;;;15.72;71.44
80180;BME280;69505;52.134;5.438;2023-07-16T04:39:09;101050.19;;;15.76;71.72
80180;BME280;69505;52.134;5.438;2023-07-16T04:41:36;101066.09;;;15.78;71.58
80180;BME280;69505;52.134;5.438;2023-07-16T04:44:02;101059.22;;;15.75;71.70
80180;BME280;69505;52.134;5.438;2023-07-16T04:46:29;101055.25;;;15.79;71.02
80180;BME280;69505;52.134;5.438;2023-07-16T04:48:57;101064.25;;;15.78;71.04
80180;BME280;69505;52.134;5.438;2023-07-16T04:51:23;101071.31;;;15.79;71.71
80180;BME280;69505;52.134;5.438;2023-07-16T04:53:50;101064.25;;;15.78;71.43
80180;BME280;69505;52.134;5.438;2023-07-16T04:56:16;101067.78;;;15.79;71.04
80180;BME280;69505;52.134;5.438;2023-07-16T04:58:44;101075.53;;;15.82;70.72
80180;BME280;69505;52.134;5.438;2023-07-16T05:01:11;101068.47;;;15.81;71.40
80180;BME280;69505;52.134;5.438;2023-07-16T05:03:37;101071.31;;;15.79;71.13
80180;BME280;69505;52.134;5.438;2023-07-16T05:06:04;101067.38;;;15.83;70.76
80180;BME280;69505;52.134;5.438;2023-07-16T05:08:31;101074.13;;;15.88;71.18
80180;BME280;69505;52.134;5.438;2023-07-16T05:10:58;101075.78;;;15.89;70.73
80180;BME280;69505;52.134;5.438;2023-07-16T05:13:25;101068.31;;;15.92;70.68
80180;BME280;69505;52.134;5.438;2023-07-16T05:15:52;101071.81;;;15.93;70.74
80180;BME280;69505;52.134;5.438;2023-07-16T05:18:19;101074.50;;;15.93;70.48
80180;BME280;69505;52.134;5.438;2023-07-16T05:20:48;101068.19;;;15.94;71.03
80180;BME280;69505;52.134;5.438;2023-07-16T05:23:15;101067.88;;;15.97;70.38
80180;BME280;69505;52.134;5.438;2023-07-16T05:25:49;101069.41;;;15.99;70.59
80180;BME280;69505;52.134;5.438;2023-07-16T05:28:17;101081.13;;;15.98;70.57
80180;BME280;69505;52.134;5.438;2023-07-16T05:30:43;101078.84;;;16.03;69.81
80180;BME280;69505;52.134;5.438;2023-07-16T05:33:11;101077.41;;;16.09;69.74
80180;BME280;69505;52.134;5.438;2023-07-16T05:35:38;101084.44;;;16.10;70.00
80180;BME280;69505;52.134;5.438;2023-07-16T05:38:05;101089.78;;;16.10;69.75
80180;BME280;69505;52.134;5.438;2023-07-16T05:40:32;101102.00;;;16.22;68.54
80180;BME280;69505;52.134;5.438;2023-07-16T05:42:59;101096.06;;;16.29;68.68
80180;BME280;69505;52.134;5.438;2023-07-16T05:45:25;101111.16;;;16.30;68.67
80180;BME280;69505;52.134;5.438;2023-07-16T05:47:52;101116.22;;;16.33;69.20
80180;BME280;69505;52.134;5.438;2023-07-16T05:50:19;101116.22;;;16.33;69.11
80180;BME280;69505;52.134;5.438;2023-07-16T05:52:45;101120.28;;;16.37;68.93
80180;BME280;69505;52.134;5.438;2023-07-16T05:55:14;101128.19;;;16.38;69.36
80180;BME280;69505;52.134;5.438;2023-07-16T05:57:41;101117.00;;;16.43;68.19
80180;BME280;69505;52.134;5.438;2023-07-16T06:00:08;101119.25;;;16.48;67.94
80180;BME280;69505;52.134;5.438;2023-07-16T06:02:35;101121.63;;;16.51;67.81
80180;BME280;69505;52.134;5.438;2023-07-16T06:05:02;101119.06;;;16.59;68.46
80180;BME280;69505;52.134;5.438;2023-07-16T06:07:28;101122.56;;;16.59;69.14
80180;BME280;69505;52.134;5.438;2023-07-16T06:09:55;101116.59;;;16.66;67.58
80180;BME280;69505;52.134;5.438;2023-07-16T06:12:21;101122.06;;;16.74;67.75
80180;BME280;69505;52.134;5.438;2023-07-16T06:14:48;101124.16;;;16.80;67.79
80180;BME280;69505;52.134;5.438;2023-07-16T06:17:15;101123.84;;;16.83;67.21
80180;BME280;69505;52.134;5.438;2023-07-16T06:19:42;101124.63;;;16.93;67.39
80180;BME280;69505;52.134;5.438;2023-07-16T06:22:09;101135.91;;;16.97;66.01
80180;BME280;69505;52.134;5.438;2023-07-16T06:24:35;101133.06;;;16.98;66.12
80180;BME280;69505;52.134;5.438;2023-07-16T06:27:02;101139.66;;;17.04;66.41
80180;BME280;69505;52.134;5.438;2023-07-16T06:29:29;101142.03;;;17.07;66.59
80180;BME280;69505;52.134;5.438;2023-07-16T06:31:57;101128.88;;;17.14;65.72
80180;BME280;69505;52.134;5.438;2023-07-16T06:34:24;101152.69;;;17.17;66.07
80180;BME280;69505;52.134;5.438;2023-07-16T06:36:51;101142.34;;;17.22;66.16
80180;BME280;69505;52.134;5.438;2023-07-16T06:39:18;101174.94;;;17.27;65.04
80180;BME280;69505;52.134;5.438;2023-07-16T06:41:45;101144.09;;;17.31;64.78
80180;BME280;69505;52.134;5.438;2023-07-16T06:44:11;101143.78;;;17.34;65.50
80180;BME280;69505;52.134;5.438;2023-07-16T06:46:38;101143.16;;;17.40;65.80
80180;BME280;69505;52.134;5.438;2023-07-16T06:49:05;101146.78;;;17.49;65.57
80180;BME280;69505;52.134;5.438;2023-07-16T06:51:33;101152.53;;;17.54;65.01
80180;BME280;69505;52.134;5.438;2023-07-16T06:53:59;101135.38;;;17.55;65.05
80180;BME280;69505;52.134;5.438;2023-07-16T06:56:26;101148.88;;;17.63;64.71
80180;BME280;69505;52.134;5.438;2023-07-16T06:58:53;101160.16;;;17.67;64.85
80180;BME280;69505;52.134;5.438;2023-07-16T07:01:19;101148.78;;;17.73;64.51
80180;BME280;69505;52.134;5.438;2023-07-16T07:03:46;101151.16;;;17.76;64.33
80180;BME280;69505;52.134;5.438;2023-07-16T07:06:13;101153.94;;;17.84;65.70
80180;BME280;69505;52.134;5.438;2023-07-16T07:08:40;101158.00;;;17.89;65.31
80180;BME280;69505;52.134;5.438;2023-07-16T07:11:06;101174.03;;;17.98;63.94
80180;BME280;69505;52.134;5.438;2023-07-16T07:13:33;101175.94;;;18.06;63.96
80180;BME280;69505;52.134;5.438;2023-07-16T07:15:59;101166.94;;;18.23;63.09
80180;BME280;69505;52.134;5.438;2023-07-16T07:18:26;101174.03;;;18.33;63.72
80180;BME280;69505;52.134;5.438;2023-07-16T07:20:53;101184.88;;;18.49;62.60
80180;BME280;69505;52.134;5.438;2023-07-16T07:23:19;101185.63;;;18.67;60.96
80180;BME280;69505;52.134;5.438;2023-07-16T07:25:50;101177.19;;;18.62;62.68
80180;BME280;69505;52.134;5.438;2023-07-16T07:28:19;101178.66;;;18.91;61.71
80180;BME280;69505;52.134;5.438;2023-07-16T07:30:46;101206.09;;;18.95;61.43
80180;BME280;69505;52.134;5.438;2023-07-16T07:33:12;101192.91;;;18.75;61.65
80180;BME280;69505;52.134;5.438;2023-07-16T07:35:39;101193.88;;;18.74;62.29
80180;BME280;69505;52.134;5.438;2023-07-16T07:38:06;101206.38;;;18.83;62.43
80180;BME280;69505;52.134;5.438;2023-07-16T07:40:32;101191.84;;;19.02;61.89
80180;BME280;69505;52.134;5.438;2023-07-16T07:42:59;101199.94;;;19.35;61.53
80180;BME280;69505;52.134;5.438;2023-07-16T07:45:26;101201.59;;;19.03;60.93
80180;BME280;69505;52.134;5.438;2023-07-16T07:47:52;101203.09;;;20.29;58.44
80180;BME280;69505;52.134;5.438;2023-07-16T07:50:19;101210.53;;;20.27;59.86
80180;BME280;69505;52.134;5.438;2023-07-16T07:52:46;101210.16;;;20.38;56.95
80180;BME280;69505;52.134;5.438;2023-07-16T07:55:12;101204.22;;;19.79;60.67
80180;BME280;69505;52.134;5.438;2023-07-16T07:57:39;101208.72;;;19.54;59.38
80180;BME280;69505;52.134;5.438;2023-07-16T08:00:06;101221.50;;;19.35;60.64
80180;BME280;69505;52.134;5.438;2023-07-16T08:02:37;101223.66;;;19.15;60.41
80180;BME280;69505;52.134;5.438;2023-07-16T08:05:04;101226.63;;;18.96;61.15
80180;BME280;69505;52.134;5.438;2023-07-16T08:07:31;101231.16;;;18.95;62.49
80180;BME280;69505;52.134;5.438;2023-07-16T08:09:58;101225.09;;;18.93;60.99
80180;BME280;69505;52.134;5.438;2023-07-16T08:12:24;101227.22;;;19.24;60.86
80180;BME280;69505;52.134;5.438;2023-07-16T08:14:51;101229.66;;;19.76;61.35
80180;BME280;69505;52.134;5.438;2023-07-16T08:17:18;101236.56;;;19.95;60.00
80180;BME280;69505;52.134;5.438;2023-07-16T08:19:47;101235.66;;;20.27;57.98
80180;BME280;69505;52.134;5.438;2023-07-16T08:22:14;101244.97;;;19.92;60.01
80180;BME280;69505;52.134;5.438;2023-07-16T08:24:40;101242.09;;;20.10;60.30
80180;BME280;69505;52.134;5.438;2023-07-16T08:27:07;101239.97;;;20.53;58.57
80180;BME280;69505;52.134;5.438;2023-07-16T08:29:36;101247.97;;;20.86;56.10
80180;BME280;69505;52.134;5.438;2023-07-16T08:32:02;101241.84;;;21.00;56.96
80180;BME280;69505;52.134;5.438;2023-07-16T08:34:29;101249.63;;;20.47;57.83
80180;BME280;69505;52.134;5.438;2023-07-16T08:36:56;101248.81;;;20.31;57.96
80180;BME280;69505;52.134;5.438;2023-07-16T08:39:22;101252.88;;;20.26;58.80
80180;BME280;69505;52.134;5.438;2023-07-16T08:41:52;101246.47;;;19.95;59.71
80180;BME280;69505;52.134;5.438;2023-07-16T08:44:20;101249.53;;;19.83;60.54
80180;BME280;69505;52.134;5.438;2023-07-16T08:46:47;101264.19;;;19.97;62.11
80180;BME280;69505;52.134;5.438;2023-07-16T08:49:16;101267.03;;;19.79;61.13
80180;BME280;69505;52.134;5.438;2023-07-16T08:51:43;101271.38;;;19.56;61.98
80180;BME280;69505;52.134;5.438;2023-07-16T08:54:12;101265.47;;;19.52;61.69
80180;BME280;69505;52.134;5.438;2023-07-16T08:56:39;101265.50;;;19.68;60.16
80180;BME280;69505;52.134;5.438;2023-07-16T08:59:05;101278.84;;;19.70;60.74
80180;BME280;69505;52.134;5.438;2023-07-16T09:01:32;101287.59;;;19.72;60.43
80180;BME280;69505;52.134;5.438;2023-07-16T09:03:59;101268.56;;;19.74;59.59
80180;BME280;69505;52.134;5.438;2023-07-16T09:06:25;101275.81;;;20.06;60.69
80180;BME280;69505;52.134;5.438;2023-07-16T09:08:52;101275.72;;;20.47;60.60
80180;BME280;69505;52.134;5.438;2023-07-16T09:11:18;101278.47;;;22.03;57.34
80180;BME280;69505;52.134;5.438;2023-07-16T09:13:51;101270.06;;;23.10;54.26
80180;BME280;69505;52.134;5.438;2023-07-16T09:16:18;101272.81;;;22.66;52.71
80180;BME280;69505;52.134;5.438;2023-07-16T09:18:45;101279.06;;;22.14;54.58
80180;BME280;69505;52.134;5.438;2023-07-16T09:21:12;101281.69;;;21.29;55.31
80180;BME280;69505;52.134;5.438;2023-07-16T09:23:38;101301.72;;;20.64;57.12
80180;BME280;69505;52.134;5.438;2023-07-16T09:26:06;101301.75;;;20.40;58.16
80180;BME280;69505;52.134;5.438;2023-07-16T09:28:33;101301.75;;;20.40;59.53
80180;BME280;69505;52.134;5.438;2023-07-16T09:31:05;101312.91;;;20.20;59.24
80180;BME280;69505;52.134;5.438;2023-07-16T09:33:33;101313.72;;;20.37;60.33
80180;BME280;69505;52.134;5.438;2023-07-16T09:36:00;101305.41;;;20.55;57.57
80180;BME280;69505;52.134;5.438;2023-07-16T09:38:29;101310.81;;;21.19;55.99
80180;BME280;69505;52.134;5.438;2023-07-16T09:40:57;101308.97;;;21.12;57.60
80180;BME280;69505;52.134;5.438;2023-07-16T09:43:24;101298.78;;;21.22;55.15
80180;BME280;69505;52.134;5.438;2023-07-16T09:45:51;101301.50;;;21.22;55.96
80180;BME280;69505;52.134;5.438;2023-07-16T09:48:18;101306.38;;;20.79;57.28
80180;BME280;69505;52.134;5.438;2023-07-16T09:50:49;101305.59;;;20.62;58.06
80180;BME280;69505;52.134;5.438;2023-07-16T09:53:19;101313.22;;;20.58;57.66
80180;BME280;69505;52.134;5.438;2023-07-16T09:55:48;101318.22;;;20.78;58.43
80180;BME280;69505;52.134;5.438;2023-07-16T09:58:17;101309.06;;;20.87;57.54
80180;BME280;69505;52.134;5.438;2023-07-16T10:00:46;101327.38;;;20.60;56.72
80180;BME280;69505;52.134;5.438;2023-07-16T10:03:15;101327.53;;;20.67;57.73
80180;BME280;69505;52.134;5.438;2023-07-16T10:05:44;101330.41;;;20.65;58.61
80180;BME280;69505;52.134;5.438;2023-07-16T10:08:18;101333.09;;;20.65;58.29
80180;BME280;69505;52.134;5.438;2023-07-16T10:10:49;101337.97;;;20.62;58.04
80180;BME280;69505;52.134;5.438;2023-07-16T10:13:16;101332.41;;;20.47;58.63
80180;BME280;69505;52.134;5.438;2023-07-16T10:16:01;101334.09;;;20.73;57.26
80180;BME280;69505;52.134;5.438;2023-07-16T10:18:31;101339.78;;;20.86;58.68
80180;BME280;69505;52.134;5.438;2023-07-16T10:21:08;101334.63;;;21.55;56.82
80180;BME280;69505;52.134;5.438;2023-07-16T10:23:39;101339.66;;;22.65;54.83
80180;BME280;69505;52.134;5.438;2023-07-16T10:26:08;101340.34;;;22.29;53.54
80180;BME280;69505;52.134;5.438;2023-07-16T10:28:36;101345.75;;;21.21;55.44
80180;BME280;69505;52.134;5.438;2023-07-16T10:31:04;101345.53;;;20.83;58.17
80180;BME280;69505;52.134;5.438;2023-07-16T10:33:31;101351.00;;;20.66;58.62
80180;BME280;69505;52.134;5.438;2023-07-16T10:35:59;101346.75;;;20.56;58.27
80180;BME280;69505;52.134;5.438;2023-07-16T10:38:26;101361.09;;;20.32;59.65
80180;BME280;69505;52.134;5.438;2023-07-16T10:40:53;101358.25;;;20.25;58.17
80180;BME280;69505;52.134;5.438;2023-07-16T10:43:19;101363.47;;;20.35;59.65
80180;BME280;69505;52.134;5.438;2023-07-16T10:45:47;101357.91;;;20.69;59.24
80180;BME280;69505;52.134;5.438;2023-07-16T10:48:14;101378.53;;;21.09;58.32
80180;BME280;69505;52.134;5.438;2023-07-16T10:50:41;101372.03;;;21.35;57.81
80180;BME280;69505;52.134;5.438;2023-07-16T10:53:08;101375.66;;;21.59;56.61
80180;BME280;69505;52.134;5.438;2023-07-16T10:55:34;101376.44;;;21.28;55.99
80180;BME280;69505;52.134;5.438;2023-07-16T10:58:05;101390.59;;;21.46;55.66
80180;BME280;69505;52.134;5.438;2023-07-16T11:00:37;101381.28;;;21.41;57.17
80180;BME280;69505;52.134;5.438;2023-07-16T11:03:04;101386.91;;;21.31;56.88
80180;BME280;69505;52.134;5.438;2023-07-16T11:05:30;101387.91;;;21.38;56.93
80180;BME280;69505;52.134;5.438;2023-07-16T11:07:57;101389.41;;;21.49;55.55
80180;BME280;69505;52.134;5.438;2023-07-16T11:10:24;101407.78;;;21.54;56.84
80180;BME280;69505;52.134;5.438;2023-07-16T11:12:52;101395.69;;;21.33;57.14
80180;BME280;69505;52.134;5.438;2023-07-16T11:15:30;101382.19;;;21.25;57.29
80180;BME280;69505;52.134;5.438;2023-07-16T11:17:58;101384.09;;;21.64;59.19
80180;BME280;69505;52.134;5.438;2023-07-16T11:20:24;101381.66;;;21.69;57.32
80180;BME280;69505;52.134;5.438;2023-07-16T11:22:51;101388.44;;;21.42;58.43
80180;BME280;69505;52.134;5.438;2023-07-16T11:25:17;101407.53;;;21.24;58.21
80180;BME280;69505;52.134;5.438;2023-07-16T11:27:48;101399.13;;;21.19;58.36
80180;BME280;69505;52.134;5.438;2023-07-16T11:30:15;101403.09;;;21.47;57.92
80180;BME280;69505;52.134;5.438;2023-07-16T11:32:48;101398.78;;;21.14;58.62
80180;BME280;69505;52.134;5.438;2023-07-16T11:35:18;101415.84;;;21.06;58.13
80180;BME280;69505;52.134;5.438;2023-07-16T11:37:46;101413.69;;;20.93;58.37
80180;BME280;69505;52.134;5.438;2023-07-16T11:40:18;101411.19;;;20.83;59.00
80180;BME280;69505;52.134;5.438;2023-07-16T11:42:45;101418.88;;;21.19;58.17
80180;BME280;69505;52.134;5.438;2023-07-16T11:45:19;101403.81;;;21.73;57.52
80180;BME280;69505;52.134;5.438;2023-07-16T11:47:46;101420.94;;;21.88;55.88
80180;BME280;69505;52.134;5.438;2023-07-16T11:50:13;101421.53;;;21.75;54.61
80180;BME280;69505;52.134;5.438;2023-07-16T11:52:40;101430.88;;;21.64;56.34
80180;BME280;69505;52.134;5.438;2023-07-16T11:55:07;101428.31;;;21.71;55.35
80180;BME280;69505;52.134;5.438;2023-07-16T11:57:35;101433.50;;;21.81;55.58
80180;BME280;69505;52.134;5.438;2023-07-16T12:00:03;101420.88;;;22.27;53.73
80180;BME280;69505;52.134;5.438;2023-07-16T12:02:30;101431.56;;;22.67;52.13
80180;BME280;69505;52.134;5.438;2023-07-16T12:04:57;101421.53;;;22.53;51.09
80180;BME280;69505;52.134;5.438;2023-07-16T12:07:37;101431.09;;;22.40;52.24
80180;BME280;69505;52.134;5.438;2023-07-16T12:10:05;101436.47;;;22.17;51.59
80180;BME280;69505;52.134;5.438;2023-07-16T12:12:33;101415.56;;;22.11;53.63
80180;BME280;69505;52.134;5.438;2023-07-16T12:15:08;101433.28;;;22.45;53.05
80180;BME280;69505;52.134;5.438;2023-07-16T12:17:35;101417.53;;;23.01;52.20
80180;BME280;69505;52.134;5.438;2023-07-16T12:20:03;101415.78;;;23.08;52.06
80180;BME280;69505;52.134;5.438;2023-07-16T12:22:30;101430.16;;;23.09;50.92
80180;BME280;69505;52.134;5.438;2023-07-16T12:24:57;101424.56;;;23.10;52.71
80180;BME280;69505;52.134;5.438;2023-07-16T12:27:24;101442.13;;;23.15;51.58
80180;BME280;69505;52.134;5.438;2023-07-16T12:29:51;101435.69;;;22.78;53.12
80180;BME280;69505;52.134;5.438;2023-07-16T12:32:18;101429.91;;;22.43;52.41
80180;BME280;69505;52.134;5.438;2023-07-16T12:34:47;101427.16;;;22.51;52.88
80180;BME280;69505;52.134;5.438;2023-07-16T12:37:13;101432.78;;;23.17;49.69
80180;BME280;69505;52.134;5.438;2023-07-16T12:39:40;101435.03;;;22.76;49.79
80180;BME280;69505;52.134;5.438;2023-07-16T12:42:06;101445.34;;;22.57;51.70
80180;BME280;69505;52.134;5.438;2023-07-16T12:44:33;101441.28;;;23.29;52.30
80180;BME280;69505;52.134;5.438;2023-07-16T12:46:59;101432.50;;;23.93;49.19
80180;BME280;69505;52.134;5.438;2023-07-16T12:49:26;101451.09;;;24.33;49.92
80180;BME280;69505;52.134;5.438;2023-07-16T12:51:53;101443.19;;;24.38;48.13
80180;BME280;69505;52.134;5.438;2023-07-16T12:54:19;101430.09;;;24.20;46.94
80180;BME280;69505;52.134;5.438;2023-07-16T12:56:46;101442.13;;;23.96;46.61